Granite Quarry, North Carolina
Current Conditions -  °F | °C
As of 12:55 PM on Saturday 25 Oct 2014 (Local Time) from KRUQ Reporting Station
Clear Clear  
Wind Chill: 19°   Ceiling: Unl
Heat Index: 19°   Visibility: 10mi
Dew Point:   Wind: 0mph
Humidity: 34%   Direction: NA
Pressure: 30"   Gusts: NA
Location:  35.61°N, 80.45°W
Report Text: KRUQ 251655Z AUTO 00000KT 10SM CLR 19/03 A3000 RMK AO2 T01920028
Loading
Personal Weather Stations






























Interactive Weather Map
Tropical Storm Tracking
New forecast layout! Learn more

10-Day Weather Forecast

Advertisements
Track Severe Weather on mobile